This is the latest recevied weather packets stored in our database for station/object KM8V-8. If no packets are shown the sender has not sent any weather packets the latest 1 day(s).
| Time | Temp. | Humidity | Pressure | Rain* | Wind** | Luminosity | Snow |
|---|---|---|---|---|---|---|---|
| 1778016923 | 10.56° C | 97% | 1008 hPa | 2.54 mm | - | 47 W/m² | - |
| 1778016323 | 10.56° C | 96% | 1007.8 hPa | 2.54 mm | - | 50 W/m² | - |
| 1778016023 | 10.56° C | 96% | 1007.9 hPa | 2.54 mm | - | 39 W/m² | - |
| 1778014221 | 12.78° C | 95% | 1007.6 hPa | 1.78 mm | - | 34 W/m² | - |
| 1778010925 | 13.89° C | 94% | 1007.4 hPa | 1.27 mm | - | 85 W/m² | - |
| 1778010625 | 13.89° C | 94% | 1007.5 hPa | 1.27 mm | - | 92 W/m² | - |
| 1778010322 | 13.89° C | 93% | 1007.5 hPa | 1.27 mm | - | 79 W/m² | - |
| 1778008817 | 14.44° C | 90% | 1007.5 hPa | 0.51 mm | - | 84 W/m² | - |
| 1778007627 | 16.11° C | 81% | 1007.3 hPa | 0.25 mm | - | 67 W/m² | - |
| 1778006723 | 17.22° C | 75% | 1007.1 hPa | 0 mm | - | 67 W/m² | - |
| 1778006423 | 17.22° C | 74% | 1007 hPa | 0 mm | - | 85 W/m² | - |
| 1778006123 | 17.22° C | 73% | 1007 hPa | 0 mm | - | 92 W/m² | - |
| 1778005817 | 17.22° C | 73% | 1007 hPa | 0 mm | - | 106 W/m² | - |
| 1778004019 | 17.78° C | 71% | 1006.8 hPa | 0 mm | - | 274 W/m² | - |
| 1778003718 | 17.78° C | 71% | 1006.8 hPa | 0 mm | - | 392 W/m² | - |
| 1778003418 | 17.78° C | 71% | 1006.7 hPa | 0 mm | - | 315 W/m² | - |
| 1778003116 | 17.78° C | 71% | 1006.7 hPa | 0 mm | - | 246 W/m² | - |
| 1778002818 | 17.78° C | 71% | 1006.7 hPa | 0 mm | - | 330 W/m² | - |
| 1778002518 | 17.78° C | 70% | 1006.7 hPa | 0 mm | - | 310 W/m² | - |
| 1778002218 | 17.78° C | 70% | 1006.7 hPa | 0 mm | - | 178 W/m² | - |
| 1778001918 | 17.78° C | 70% | 1006.7 hPa | 0 mm | - | 202 W/m² | - |
| 1778001618 | 17.78° C | 70% | 1006.6 hPa | 0 mm | - | 224 W/m² | - |
| 1777998916 | 18.89° C | 66% | 1006.5 hPa | 0 mm | - | 153 W/m² | - |
* Rain latest hour (hover to see other rain measurements)
** Current wind speed in m/s (hover to see current wind gust speed)